Time;durP1;ratioP1;P1;durP2;ratioP2;P2;SDS_P1;SDS_P2;PMS_P1;PMS_P2;Temp;Humidity;BMP_temperature;BMP_pressure;BME280_temperature;BME280_humidity;BME280_pressure;Samples;Min_cycle;Max_cycle;Signal;HPM_P1;HPM_P2
2023/05/24 00:02:05;;;;;;;10.27;5.60;;;;;;;12.46;84.66;99006.00;4911513;29;20232;-65
2023/05/24 00:04:36;;;;;;;8.65;5.57;;;;;;;12.48;84.67;98996.19;4911673;29;20464;-65
2023/05/24 00:07:03;;;;;;;7.67;5.70;;;;;;;12.54;84.34;98994.75;4908797;29;20227;-65
2023/05/24 00:09:36;;;;;;;6.97;4.87;;;;;;;12.54;83.53;98986.88;4905499;29;20587;-64
2023/05/24 00:12:03;;;;;;;8.17;5.33;;;;;;;12.55;84.27;98988.53;4904662;29;20318;-64
2023/05/24 00:14:38;;;;;;;9.63;5.13;;;;;;;12.53;84.01;98993.94;4913784;29;20230;-64
2023/05/24 00:17:05;;;;;;;9.27;5.40;;;;;;;12.61;82.33;98985.28;4907272;29;20233;-64
2023/05/24 00:19:37;;;;;;;9.90;5.20;;;;;;;12.65;82.36;98988.44;4912387;29;20241;-64
2023/05/24 00:22:07;;;;;;;9.67;5.17;;;;;;;12.66;82.84;98974.38;4908852;29;20345;-64
2023/05/24 00:24:36;;;;;;;9.30;4.87;;;;;;;12.60;84.47;98975.00;4910053;29;20229;-64
2023/05/24 00:27:03;;;;;;;8.10;4.83;;;;;;;12.61;82.73;98971.41;4906329;29;20228;-64
2023/05/24 00:29:38;;;;;;;10.07;5.10;;;;;;;12.59;82.91;98983.81;4908693;29;20229;-64
2023/05/24 00:32:05;;;;;;;9.67;4.70;;;;;;;12.58;82.01;98990.84;4908655;29;20235;-64
2023/05/24 00:34:37;;;;;;;8.97;4.77;;;;;;;12.58;81.03;98985.59;4913380;29;20697;-64
2023/05/24 00:37:04;;;;;;;9.40;4.80;;;;;;;12.68;77.61;98985.50;4913287;29;20221;-64
2023/05/24 00:39:36;;;;;;;8.10;4.30;;;;;;;12.78;76.67;98983.56;4915341;29;20236;-64
2023/05/24 00:42:05;;;;;;;7.87;4.10;;;;;;;12.77;76.83;98974.06;4903080;29;20425;-66
2023/05/24 00:44:38;;;;;;;6.30;3.80;;;;;;;12.76;75.32;98959.34;4897762;29;20221;-65
2023/05/24 00:47:05;;;;;;;6.80;4.20;;;;;;;12.76;74.59;98966.38;4907789;29;20568;-65
2023/05/24 00:49:36;;;;;;;12.27;4.10;;;;;;;12.69;75.23;98979.31;4897033;29;20243;-65
2023/05/24 00:52:03;;;;;;;10.13;4.27;;;;;;;12.60;77.60;98970.56;4903649;29;20240;-65
2023/05/24 00:54:39;;;;;;;9.37;4.20;;;;;;;12.52;78.41;98970.50;4907199;29;20224;-65
2023/05/24 00:57:06;;;;;;;7.97;4.03;;;;;;;12.44;78.25;98954.75;4894476;29;20227;-65
2023/05/24 00:59:38;;;;;;;7.87;4.03;;;;;;;12.47;78.13;98957.91;4910565;29;20247;-65
2023/05/24 01:02:05;;;;;;;9.73;4.93;;;;;;;12.38;79.31;98964.06;4904749;29;20232;-65
2023/05/24 01:04:37;;;;;;;8.20;3.87;;;;;;;12.36;77.88;98961.56;4890436;29;20792;-65
2023/05/24 01:07:13;;;;;;;8.37;4.70;;;;;;;12.33;77.59;98963.69;4892475;29;20227;-65
2023/05/24 01:09:53;;;;;;;8.17;4.40;;;;;;;12.20;78.15;98954.44;4901303;29;20235;-65
2023/05/24 01:12:28;;;;;;;5.97;3.67;;;;;;;12.17;78.87;98946.09;4894913;29;20637;-65
2023/05/24 01:15:09;;;;;;;8.47;4.03;;;;;;;12.02;79.41;98953.66;4900145;29;20235;-65
2023/05/24 01:17:47;;;;;;;10.23;4.33;;;;;;;11.87;80.65;98950.75;4880204;29;20227;-65
2023/05/24 01:20:16;;;;;;;7.07;4.27;;;;;;;11.87;76.81;98950.75;4905656;29;20307;-65
2023/05/24 01:23:03;;;;;;;8.33;4.33;;;;;;;11.78;79.28;98950.69;4905424;29;20249;-65
2023/05/24 01:25:48;;;;;;;8.73;4.47;;;;;;;11.59;80.22;98946.44;4908251;29;20231;-65
2023/05/24 01:28:18;;;;;;;9.97;3.97;;;;;;;11.48;80.86;98941.44;4890996;29;20283;-65
2023/05/24 01:30:45;;;;;;;6.17;3.90;;;;;;;11.36;82.78;98940.81;4906964;29;20290;-65
2023/05/24 01:33:12;;;;;;;9.13;4.40;;;;;;;11.30;83.45;98941.38;4913124;29;20584;-65
2023/05/24 01:35:41;;;;;;;8.43;4.20;;;;;;;11.25;84.65;98949.69;4894656;29;20231;-65
2023/05/24 01:38:09;;;;;;;9.97;3.83;;;;;;;11.20;84.17;98951.91;4888452;29;20316;-65
2023/05/24 01:40:38;;;;;;;9.77;4.07;;;;;;;11.15;85.80;98948.91;4895820;29;20227;-65
2023/05/24 01:43:15;;;;;;;10.60;4.23;;;;;;;11.16;85.37;98955.78;4893300;29;20272;-65
2023/05/24 01:45:52;;;;;;;13.97;4.50;;;;;;;11.18;85.19;98953.84;4897148;29;20250;-65
2023/05/24 01:48:27;;;;;;;7.83;4.03;;;;;;;11.16;84.79;98948.75;4907721;29;20869;-65
2023/05/24 01:50:58;;;;;;;8.87;4.23;;;;;;;11.16;84.47;98950.56;4899108;29;20242;-65
2023/05/24 01:53:26;;;;;;;8.20;4.50;;;;;;;11.17;84.26;98944.38;4894432;29;20558;-65
2023/05/24 01:55:57;;;;;;;9.77;3.87;;;;;;;11.15;85.02;98949.72;4901049;29;20306;-65
2023/05/24 01:58:25;;;;;;;9.63;3.83;;;;;;;11.13;84.57;98946.44;4910012;29;20227;-65
2023/05/24 02:00:57;;;;;;;12.87;4.37;;;;;;;11.13;86.32;98945.63;4884386;29;20242;-65
2023/05/24 02:03:24;;;;;;;9.70;4.27;;;;;;;11.13;86.55;98959.50;4906805;29;20231;-65
2023/05/24 02:05:51;;;;;;;8.50;4.10;;;;;;;11.07;87.31;98963.53;4907891;29;20290;-64
2023/05/24 02:08:17;;;;;;;7.87;3.87;;;;;;;11.07;87.72;98965.34;4908860;29;20248;-64
2023/05/24 02:10:45;;;;;;;8.07;4.50;;;;;;;11.10;88.34;98966.81;4910742;29;20236;-64
2023/05/24 02:13:11;;;;;;;8.53;3.93;;;;;;;11.21;85.62;98970.03;4910549;29;20229;-64
2023/05/24 02:15:40;;;;;;;9.20;4.23;;;;;;;11.40;81.60;98975.31;4895153;29;20230;-64
2023/05/24 02:18:13;;;;;;;6.27;3.73;;;;;;;11.46;80.34;98978.16;4904967;29;20231;-64
2023/05/24 02:20:40;;;;;;;8.50;3.97;;;;;;;11.48;83.06;98973.59;4881456;29;20335;-64
2023/05/24 02:23:06;;;;;;;9.63;4.50;;;;;;;11.51;82.10;98972.50;4909055;29;20703;-64
2023/05/24 02:25:33;;;;;;;7.33;4.07;;;;;;;11.51;81.14;98969.88;4910690;29;20246;-64
2023/05/24 02:28:00;;;;;;;11.17;4.73;;;;;;;11.51;80.71;98970.69;4886880;29;20232;-64
2023/05/24 02:30:26;;;;;;;8.27;4.23;;;;;;;11.48;82.57;98970.19;4898886;29;20802;-64
2023/05/24 02:32:53;;;;;;;9.07;4.00;;;;;;;11.50;82.03;98963.81;4913490;29;20234;-64
2023/05/24 02:35:21;;;;;;;12.17;4.00;;;;;;;11.55;81.01;98971.22;4908027;29;20966;-64
2023/05/24 02:37:48;;;;;;;9.83;3.90;;;;;;;11.49;83.65;98969.22;4908614;29;20224;-64
2023/05/24 02:40:15;;;;;;;7.33;3.83;;;;;;;11.47;83.45;98963.31;4908247;29;20257;-64
2023/05/24 02:42:42;;;;;;;10.00;4.13;;;;;;;11.54;84.55;98971.38;4911187;29;20704;-64
2023/05/24 02:45:09;;;;;;;6.90;3.53;;;;;;;11.50;85.32;98963.81;4902918;29;20234;-64
2023/05/24 02:47:35;;;;;;;10.00;4.17;;;;;;;11.46;84.93;98965.09;4894330;29;20239;-64
2023/05/24 02:50:02;;;;;;;5.77;3.90;;;;;;;11.48;84.49;98963.16;4904494;29;20592;-64
2023/05/24 02:52:30;;;;;;;11.90;4.50;;;;;;;11.52;84.02;98974.13;4911007;29;20599;-64
2023/05/24 02:54:57;;;;;;;10.90;4.20;;;;;;;11.57;81.99;98971.91;4891532;29;20314;-64
2023/05/24 02:57:23;;;;;;;12.53;4.33;;;;;;;11.70;79.49;98976.75;4909980;29;20321;-64
2023/05/24 02:59:50;;;;;;;10.93;4.63;;;;;;;11.75;79.15;98981.53;4893673;29;20286;-64
2023/05/24 03:02:18;;;;;;;8.93;4.53;;;;;;;11.74;79.22;98985.09;4895952;29;20254;-64
2023/05/24 03:04:45;;;;;;;8.23;4.20;;;;;;;11.76;78.10;98978.78;4899194;29;20236;-64
2023/05/24 03:07:13;;;;;;;11.00;4.00;;;;;;;11.72;79.38;98969.59;4908465;29;20235;-64
2023/05/24 03:09:41;;;;;;;8.63;4.17;;;;;;;11.71;80.64;98977.56;4900161;29;20270;-64
2023/05/24 03:12:08;;;;;;;10.93;4.53;;;;;;;11.73;78.61;98975.63;4893694;29;20241;-64
2023/05/24 03:14:37;;;;;;;11.33;4.33;;;;;;;11.77;78.40;98974.34;4891067;29;20236;-65
2023/05/24 03:17:29;;;;;;;9.20;4.23;;;;;;;11.78;77.91;98974.22;4907578;29;20260;-64
2023/05/24 03:19:56;;;;;;;9.03;4.13;;;;;;;11.75;78.39;98969.28;4909746;29;20231;-64
2023/05/24 03:22:23;;;;;;;11.03;4.80;;;;;;;11.73;79.25;98975.63;4898647;29;20236;-64
2023/05/24 03:24:51;;;;;;;12.40;4.13;;;;;;;11.67;80.03;98964.78;4901520;29;20223;-64
2023/05/24 03:27:18;;;;;;;10.83;3.97;;;;;;;11.70;79.43;98968.06;4908615;29;20776;-64
2023/05/24 03:29:45;;;;;;;8.90;4.00;;;;;;;11.65;80.30;98960.69;4906798;29;20315;-64
2023/05/24 03:32:12;;;;;;;8.27;4.40;;;;;;;11.69;79.45;98964.66;5130112;23;20287;-64
2023/05/24 03:34:39;;;;;;;16.80;4.40;;;;;;;11.60;81.75;98955.91;4930097;29;20250;-64
2023/05/24 03:37:05;;;;;;;10.00;4.23;;;;;;;11.56;80.91;98962.41;4927697;28;20685;-64
2023/05/24 03:39:37;;;;;;;11.97;4.63;;;;;;;11.51;81.81;98955.00;4931127;29;20555;-64
2023/05/24 03:42:21;;;;;;;7.47;4.17;;;;;;;11.48;82.95;98952.69;4915773;29;20245;-64
2023/05/24 03:44:47;;;;;;;12.10;5.17;;;;;;;11.44;84.32;98948.72;4936582;29;20235;-64
2023/05/24 03:47:15;;;;;;;9.63;4.17;;;;;;;11.45;83.51;98952.19;4928559;29;20246;-64
2023/05/24 03:49:41;;;;;;;11.57;4.23;;;;;;;11.45;80.73;98954.78;4914585;29;20228;-64
2023/05/24 03:52:08;;;;;;;15.00;4.47;;;;;;;11.41;82.61;98950.81;4908560;29;20230;-64
2023/05/24 03:54:36;;;;;;;14.10;4.50;;;;;;;11.37;84.61;98942.44;4929234;29;20314;-64
2023/05/24 03:57:03;;;;;;;10.07;4.53;;;;;;;11.36;83.66;98940.81;4909447;29;20227;-64
2023/05/24 03:59:56;;;;;;;10.43;4.13;;;;;;;11.31;85.00;98938.66;4930419;29;20253;-64
2023/05/24 04:02:23;;;;;;;8.50;3.77;;;;;;;11.25;86.33;98936.63;4927841;28;20238;-64
2023/05/24 04:04:50;;;;;;;10.20;4.70;;;;;;;11.26;86.30;98940.03;4929861;29;20528;-64
2023/05/24 04:07:16;;;;;;;10.17;4.13;;;;;;;11.27;86.91;98937.28;4914051;29;20345;-64
2023/05/24 04:09:43;;;;;;;9.47;4.30;;;;;;;11.24;87.64;98927.13;4930783;29;20232;-64
2023/05/24 04:12:11;;;;;;;6.93;3.77;;;;;;;11.27;87.51;98928.63;4927458;29;20245;-64
2023/05/24 04:14:41;;;;;;;6.93;3.77;;;;;;;11.30;87.74;98926.56;4912983;29;20275;-64
2023/05/24 04:17:09;;;;;;;9.17;4.20;;;;;;;11.35;85.19;98929.53;4908725;29;20291;-64
2023/05/24 04:19:37;;;;;;;10.27;4.60;;;;;;;11.40;82.86;98939.53;4929822;28;20239;-64
2023/05/24 04:22:04;;;;;;;8.67;4.33;;;;;;;11.43;81.82;98941.03;4909721;29;21064;-64
2023/05/24 04:24:37;;;;;;;12.60;4.97;;;;;;;11.39;82.79;98935.28;4912060;29;20222;-64
2023/05/24 04:27:03;;;;;;;10.23;4.00;;;;;;;11.46;83.93;98954.63;4916108;29;20329;-64
2023/05/24 04:29:55;;;;;;;11.00;4.53;;;;;;;11.46;82.09;98949.41;4930670;29;20732;-64
2023/05/24 04:32:23;;;;;;;11.80;4.00;;;;;;;11.40;81.26;98959.63;4924531;29;20265;-64
2023/05/24 04:34:52;;;;;;;11.87;4.90;;;;;;;11.45;82.24;98966.06;4930776;29;20238;-64
2023/05/24 04:37:20;;;;;;;13.07;4.23;;;;;;;11.49;82.36;98966.59;4911535;29;20245;-64
2023/05/24 04:39:48;;;;;;;11.00;4.00;;;;;;;11.45;83.65;98965.25;4911946;29;20224;-64
2023/05/24 04:42:15;;;;;;;8.57;4.07;;;;;;;11.50;83.04;98968.25;4926385;28;20241;-64
2023/05/24 04:44:43;;;;;;;11.77;4.50;;;;;;;11.50;84.69;98969.03;4931285;29;20227;-64
2023/05/24 04:47:11;;;;;;;8.30;4.70;;;;;;;11.52;83.32;98976.75;4925620;29;20281;-64
2023/05/24 04:49:39;;;;;;;6.57;4.33;;;;;;;11.58;83.65;98967.47;4930313;29;20282;-64
2023/05/24 04:52:07;;;;;;;12.33;4.40;;;;;;;11.62;83.47;98977.50;4927598;28;20244;-64
2023/05/24 04:54:37;;;;;;;9.67;4.57;;;;;;;11.70;83.38;98975.91;4930846;29;20236;-64
2023/05/24 04:57:04;;;;;;;11.37;4.87;;;;;;;11.64;81.14;98975.56;4927273;29;20594;-64
2023/05/24 04:59:55;;;;;;;11.30;4.80;;;;;;;11.72;79.53;98976.59;4929214;29;20277;-64
2023/05/24 05:02:22;;;;;;;12.70;4.57;;;;;;;11.74;80.14;98987.72;4929005;29;20239;-64
2023/05/24 05:04:50;;;;;;;11.67;5.20;;;;;;;11.69;80.18;98987.34;4929759;29;20226;-64
2023/05/24 05:07:16;;;;;;;7.17;4.23;;;;;;;11.61;79.92;98986.31;4929334;28;20246;-64
2023/05/24 05:09:43;;;;;;;10.00;4.23;;;;;;;11.65;82.03;98981.59;4930009;29;20229;-64
2023/05/24 05:12:09;;;;;;;11.90;4.37;;;;;;;11.78;81.97;98981.22;4926081;28;20727;-64
2023/05/24 05:14:37;;;;;;;9.13;4.33;;;;;;;11.70;80.12;98991.59;4927885;29;20632;-64
2023/05/24 05:17:04;;;;;;;7.87;3.90;;;;;;;11.70;79.59;98994.22;4926125;29;20227;-64
2023/05/24 05:19:56;;;;;;;10.83;4.60;;;;;;;11.63;80.18;98986.16;4928107;29;20289;-64
2023/05/24 05:22:23;;;;;;;13.33;4.07;;;;;;;11.58;79.84;98997.09;4925147;29;20246;-64
2023/05/24 05:24:50;;;;;;;14.10;4.90;;;;;;;11.61;79.37;98990.72;4932393;29;20231;-64
2023/05/24 05:27:16;;;;;;;12.90;4.83;;;;;;;11.62;79.95;98990.59;4926861;29;20239;-64
2023/05/24 05:29:43;;;;;;;12.30;4.53;;;;;;;11.70;80.79;98996.84;4930578;29;20231;-64
2023/05/24 05:32:09;;;;;;;8.73;4.50;;;;;;;11.73;80.62;99004.38;4928258;28;20238;-64
2023/05/24 05:34:37;;;;;;;10.43;4.60;;;;;;;11.74;79.49;98992.94;4929055;29;20230;-64
2023/05/24 05:37:05;;;;;;;11.63;4.40;;;;;;;11.59;78.18;98992.66;4925875;29;20242;-64
2023/05/24 05:39:37;;;;;;;7.90;3.97;;;;;;;11.69;78.38;98987.34;4928802;29;20241;-64
2023/05/24 05:42:04;;;;;;;10.07;4.20;;;;;;;11.73;78.80;98986.91;4925066;29;20966;-64
2023/05/24 05:44:55;;;;;;;9.03;4.53;;;;;;;11.78;78.95;98978.59;4932146;29;20237;-64
2023/05/24 05:47:22;;;;;;;9.33;4.23;;;;;;;11.66;78.75;98978.03;4926064;28;20242;-64
2023/05/24 05:49:48;;;;;;;9.57;4.20;;;;;;;11.77;78.85;98987.44;4929261;29;20239;-64
2023/05/24 05:52:16;;;;;;;10.33;4.13;;;;;;;11.72;79.02;98987.06;4924600;29;20721;-64
2023/05/24 05:54:43;;;;;;;9.10;4.40;;;;;;;11.82;78.21;98986.03;4926563;29;20234;-64
2023/05/24 05:57:10;;;;;;;13.67;4.47;;;;;;;11.90;77.70;98987.06;4925218;29;20237;-64
2023/05/24 05:59:37;;;;;;;9.07;4.50;;;;;;;11.80;77.83;98987.13;4927912;29;20233;-64
2023/05/24 06:02:04;;;;;;;12.70;4.50;;;;;;;11.87;77.89;98988.16;4925023;29;20565;-64
2023/05/24 06:04:37;;;;;;;10.03;4.67;;;;;;;11.82;77.57;98993.03;4928077;29;20226;-64
2023/05/24 06:07:04;;;;;;;13.57;5.00;;;;;;;11.88;78.26;98996.84;4924868;29;20234;-64
2023/05/24 06:09:38;;;;;;;11.97;4.33;;;;;;;11.83;77.67;98994.69;4919185;29;20578;-64
2023/05/24 06:12:05;;;;;;;12.53;4.60;;;;;;;11.90;77.25;98995.72;4925555;29;20235;-64
2023/05/24 06:14:38;;;;;;;13.83;4.50;;;;;;;11.90;79.29;98994.91;4928924;29;20230;-64
2023/05/24 06:17:05;;;;;;;11.20;4.37;;;;;;;12.02;78.72;99000.75;4899399;29;20231;-64
2023/05/24 06:19:37;;;;;;;9.90;4.40;;;;;;;12.03;75.40;98987.53;4928337;29;20237;-64
2023/05/24 06:22:08;;;;;;;10.97;4.13;;;;;;;12.05;75.21;98988.22;4924922;28;20298;-64
2023/05/24 06:24:38;;;;;;;14.77;4.57;;;;;;;11.99;74.71;98987.94;4923535;29;20227;-64
2023/05/24 06:27:05;;;;;;;13.33;4.60;;;;;;;11.89;75.22;98988.84;4922712;29;20225;-64
2023/05/24 06:29:37;;;;;;;13.77;4.80;;;;;;;11.93;74.86;98994.63;4929701;29;20634;-64
2023/05/24 06:32:04;;;;;;;12.57;4.50;;;;;;;11.95;75.21;98992.66;4928484;29;20304;-64
2023/05/24 06:34:37;;;;;;;10.80;4.33;;;;;;;11.99;75.59;99001.03;4928616;29;20232;-64
2023/05/24 06:37:09;;;;;;;15.27;5.30;;;;;;;12.12;74.80;99003.31;4925701;29;20378;-64
2023/05/24 06:39:38;;;;;;;17.53;4.80;;;;;;;12.38;74.24;99001.50;4928900;29;20611;-63
2023/05/24 06:42:05;;;;;;;10.70;4.43;;;;;;;12.60;73.81;99004.59;4926910;28;20325;-64
2023/05/24 06:44:37;;;;;;;18.00;4.70;;;;;;;12.75;73.96;99007.47;4930194;29;20696;-64
2023/05/24 06:47:04;;;;;;;13.77;4.88;;;;;;;12.67;71.32;99007.44;4926354;29;20782;-64
2023/05/24 06:49:37;;;;;;;12.67;5.10;;;;;;;12.58;71.87;99013.59;4930483;29;20579;-60
2023/05/24 06:52:06;;;;;;;12.10;4.17;;;;;;;12.77;72.49;99015.97;4927382;29;20234;-65
2023/05/24 06:54:38;;;;;;;10.50;3.93;;;;;;;12.59;71.78;99013.44;4930309;29;20263;-62
2023/05/24 06:57:05;;;;;;;13.77;4.77;;;;;;;12.80;71.38;99020.09;4928588;28;20758;-64
2023/05/24 06:59:37;;;;;;;10.47;4.10;;;;;;;12.91;71.05;99022.47;4931668;29;20688;-62
2023/05/24 07:02:04;;;;;;;14.77;4.77;;;;;;;12.80;70.59;99025.34;4928267;29;20548;-63
2023/05/24 07:04:55;;;;;;;12.17;4.90;;;;;;;12.83;71.22;99030.28;4933440;29;20359;-66
2023/05/24 07:07:22;;;;;;;15.67;4.93;;;;;;;12.83;71.58;99038.13;4920360;29;20231;-67
2023/05/24 07:09:50;;;;;;;13.60;4.47;;;;;;;12.48;72.13;99039.88;4923577;29;20238;-64
2023/05/24 07:12:17;;;;;;;13.00;4.50;;;;;;;12.70;70.79;99046.41;4921047;29;20395;-65
2023/05/24 07:14:44;;;;;;;10.67;4.83;;;;;;;12.49;71.37;99058.06;4906378;29;20694;-65
2023/05/24 07:17:10;;;;;;;13.70;4.23;;;;;;;12.51;72.51;99057.91;4922568;29;20228;-64
2023/05/24 07:19:37;;;;;;;13.13;5.17;;;;;;;12.91;70.13;99055.69;4928567;29;20631;-64
2023/05/24 07:22:03;;;;;;;10.07;4.77;;;;;;;12.79;70.01;99068.25;4880925;29;20271;-64
2023/05/24 07:24:56;;;;;;;14.83;4.67;;;;;;;13.26;70.01;99067.81;4929709;29;20618;-65
2023/05/24 07:27:23;;;;;;;9.73;4.40;;;;;;;13.51;68.38;99065.31;4913314;29;20227;-65
2023/05/24 07:29:50;;;;;;;11.40;4.60;;;;;;;13.55;67.91;99068.47;4929018;29;20226;-66
2023/05/24 07:32:16;;;;;;;11.43;4.53;;;;;;;13.29;69.31;99071.94;4904100;29;20257;-66
2023/05/24 07:34:43;;;;;;;13.93;4.67;;;;;;;13.23;68.69;99075.19;4909435;29;20218;-66
2023/05/24 07:37:10;;;;;;;10.40;3.90;;;;;;;12.75;69.90;99077.38;4918401;29;20239;-65
2023/05/24 07:39:37;;;;;;;10.87;3.97;;;;;;;13.01;69.77;99085.22;4917042;29;20228;-65
2023/05/24 07:42:06;;;;;;;12.63;4.47;;;;;;;12.60;70.61;99085.78;4927152;29;20306;-65
2023/05/24 07:44:37;;;;;;;9.77;4.43;;;;;;;12.87;70.27;99088.41;4929110;29;20227;-66
2023/05/24 07:47:04;;;;;;;17.63;4.83;;;;;;;13.09;69.45;99084.47;4927739;29;20228;-63
2023/05/24 07:49:37;;;;;;;8.93;3.93;;;;;;;13.32;68.53;99074.25;4929991;29;20232;-67
2023/05/24 07:52:05;;;;;;;13.83;4.37;;;;;;;13.38;67.11;99081.47;4925341;29;20236;-67
2023/05/24 07:54:37;;;;;;;16.67;4.47;;;;;;;13.53;68.46;99075.66;4928989;29;20691;-62
2023/05/24 07:57:04;;;;;;;18.23;4.67;;;;;;;13.23;68.01;99078.66;4926758;29;20259;-56
2023/05/24 07:59:38;;;;;;;13.53;4.60;;;;;;;13.20;67.97;99085.97;4919466;29;20595;-64
2023/05/24 08:02:05;;;;;;;14.93;5.07;;;;;;;13.10;68.13;99086.13;4924429;28;20562;-65
2023/05/24 08:04:38;;;;;;;19.90;4.63;;;;;;;13.25;68.28;99083.72;4918331;29;20225;-61
2023/05/24 08:07:04;;;;;;;16.03;4.53;;;;;;;13.21;67.56;99095.50;4926310;28;20252;-64
2023/05/24 08:09:37;;;;;;;12.70;4.60;;;;;;;13.10;68.28;99081.69;4927346;29;20226;-63
2023/05/24 08:12:05;;;;;;;12.63;4.60;;;;;;;13.25;68.02;99094.19;4925918;29;20239;-63
2023/05/24 08:14:38;;;;;;;12.73;4.57;;;;;;;13.34;67.17;99085.41;4928332;29;20223;-57
2023/05/24 08:17:05;;;;;;;17.00;4.90;;;;;;;13.17;67.89;99102.84;4926544;29;20231;-63
2023/05/24 08:19:37;;;;;;;13.53;4.37;;;;;;;13.13;67.61;99091.84;4929408;29;20226;-56
2023/05/24 08:22:04;;;;;;;15.03;4.87;;;;;;;13.25;67.28;99097.63;4929340;29;20773;-68
2023/05/24 08:24:37;;;;;;;18.30;5.53;;;;;;;13.07;67.29;99092.47;4926839;28;20603;-64
2023/05/24 08:27:04;;;;;;;13.27;4.80;;;;;;;13.45;67.36;99094.81;4907294;29;20227;-60
2023/05/24 08:29:57;;;;;;;16.77;4.37;;;;;;;13.54;66.86;99103.53;4901293;29;20239;-58
2023/05/24 08:32:23;;;;;;;16.77;4.80;;;;;;;13.72;65.70;99106.06;4914712;29;20235;-66
2023/05/24 08:34:50;;;;;;;13.17;4.83;;;;;;;13.45;66.69;99102.66;4918357;29;20237;-62
2023/05/24 08:37:19;;;;;;;13.60;4.97;;;;;;;13.54;66.43;99108.78;4916440;29;22437;-67
2023/05/24 08:39:45;;;;;;;16.13;5.33;;;;;;;13.96;64.29;99110.53;4932869;29;20228;-63
2023/05/24 08:42:13;;;;;;;11.20;4.37;;;;;;;13.29;66.58;99112.06;4909001;29;20233;-66
2023/05/24 08:44:46;;;;;;;10.33;4.23;;;;;;;13.62;65.86;99106.19;4929526;29;20245;-62
2023/05/24 08:47:15;;;;;;;11.70;4.23;;;;;;;13.14;67.77;99117.09;4925358;29;20225;-64
2023/05/24 08:49:42;;;;;;;8.13;3.23;;;;;;;12.74;69.20;99115.84;4928146;29;20228;-64
2023/05/24 08:52:11;;;;;;;12.67;4.47;;;;;;;13.28;68.15;99107.81;4925032;28;20242;-61
2023/05/24 08:54:38;;;;;;;12.47;4.13;;;;;;;13.51;66.47;99115.16;4929020;29;20320;-62
2023/05/24 08:57:06;;;;;;;16.47;4.80;;;;;;;13.20;66.63;99112.19;4926040;29;20230;-61
2023/05/24 08:59:40;;;;;;;12.47;4.30;;;;;;;13.24;67.84;99110.91;4908042;29;20320;-62
2023/05/24 09:02:08;;;;;;;19.00;4.83;;;;;;;13.68;65.90;99113.44;4898044;28;20235;-62
2023/05/24 09:04:39;;;;;;;16.40;4.80;;;;;;;13.99;64.61;99109.41;4915361;29;20232;-61
2023/05/24 09:07:07;;;;;;;13.37;4.37;;;;;;;14.27;62.34;99109.94;4925401;29;20238;-61
2023/05/24 09:09:43;;;;;;;14.47;4.73;;;;;;;13.85;63.94;99116.91;4927368;29;20223;-58
2023/05/24 09:12:14;;;;;;;12.57;4.60;;;;;;;14.13;63.45;99121.06;4908164;29;20232;-60
2023/05/24 09:14:45;;;;;;;17.67;5.00;;;;;;;14.40;62.54;99121.75;4928125;29;20561;-60
2023/05/24 09:17:14;;;;;;;10.37;3.87;;;;;;;14.50;62.21;99125.06;4926004;29;20235;-60
2023/05/24 09:19:44;;;;;;;12.70;4.83;;;;;;;14.74;61.60;99118.19;4929848;29;20270;-62
2023/05/24 09:22:13;;;;;;;12.67;4.80;;;;;;;14.64;60.94;99115.69;4925141;28;20607;-61
2023/05/24 09:24:43;;;;;;;13.87;5.00;;;;;;;14.67;59.74;99125.84;4927796;29;20231;-60
2023/05/24 09:27:09;;;;;;;14.00;5.00;;;;;;;14.99;59.79;99118.97;4923993;29;20239;-63
2023/05/24 09:29:37;;;;;;;12.93;4.40;;;;;;;14.88;59.84;99116.69;4915803;29;20922;-65
2023/05/24 09:32:07;;;;;;;21.90;5.30;;;;;;;14.49;61.02;99112.91;4896285;29;20237;-62
2023/05/24 09:34:40;;;;;;;17.60;5.63;;;;;;;14.42;61.61;99112.72;4925761;29;20229;-61
2023/05/24 09:37:12;;;;;;;17.03;4.70;;;;;;;14.10;61.35;99114.34;4925955;29;20219;-65
2023/05/24 09:39:40;;;;;;;14.93;5.47;;;;;;;14.15;62.06;99111.22;4929265;28;20220;-61
2023/05/24 09:42:07;;;;;;;12.43;4.30;;;;;;;14.37;60.57;99114.22;4924620;29;20594;-68
2023/05/24 09:44:37;;;;;;;12.83;5.13;;;;;;;14.35;61.62;99118.81;4927266;29;20228;-65
2023/05/24 09:47:04;;;;;;;17.07;5.00;;;;;;;14.12;63.06;99107.13;4907435;29;20287;-67
2023/05/24 09:49:56;;;;;;;17.80;4.90;;;;;;;14.41;61.67;99102.38;4926418;29;20807;-66
2023/05/24 09:52:24;;;;;;;13.97;4.77;;;;;;;14.07;60.13;99104.16;4922475;28;20241;-67
2023/05/24 09:54:51;;;;;;;14.77;5.73;;;;;;;14.08;60.56;99100.56;4918729;29;20248;-61
2023/05/24 09:57:18;;;;;;;18.70;5.70;;;;;;;13.66;62.38;99107.53;4888807;29;20245;-66
2023/05/24 09:59:45;;;;;;;15.00;5.50;;;;;;;13.51;62.92;99114.34;4918817;29;20238;-61
2023/05/24 10:02:12;;;;;;;16.93;4.90;;;;;;;13.42;63.85;99109.06;4925511;29;20239;-65
2023/05/24 10:04:39;;;;;;;16.00;4.97;;;;;;;13.11;64.26;99113.97;4925780;29;20687;-62
2023/05/24 10:07:06;;;;;;;14.97;5.40;;;;;;;13.06;64.81;99117.03;4923689;29;20231;-62
2023/05/24 10:09:38;;;;;;;12.47;4.77;;;;;;;12.88;65.97;99111.00;4924985;29;20224;-63
2023/05/24 10:12:07;;;;;;;16.50;5.33;;;;;;;12.81;65.84;99105.59;4922466;29;20569;-62
2023/05/24 10:14:38;;;;;;;18.40;5.53;;;;;;;12.74;66.32;99107.97;4927887;29;20625;-63
2023/05/24 10:17:05;;;;;;;14.67;5.00;;;;;;;12.91;66.87;99110.72;4928561;29;20225;-63
2023/05/24 10:19:37;;;;;;;15.47;5.40;;;;;;;13.09;66.49;99113.28;4933327;29;20237;-63
2023/05/24 10:22:07;;;;;;;19.47;5.73;;;;;;;13.43;65.37;99108.09;4933730;28;20720;-62
2023/05/24 10:24:46;;;;;;;15.53;5.77;;;;;;;13.68;64.57;99107.34;4932594;29;20216;-63
2023/05/24 10:27:17;;;;;;;12.77;5.43;;;;;;;14.47;63.29;99112.25;4927449;28;20223;-64
2023/05/24 10:29:54;;;;;;;15.27;5.13;;;;;;;15.10;58.68;99115.16;4932350;29;20235;-63
2023/05/24 10:32:24;;;;;;;12.87;4.97;;;;;;;15.19;57.97;99114.13;4930174;29;20674;-63
2023/05/24 10:34:52;;;;;;;12.83;4.33;;;;;;;15.36;58.37;99114.09;4913174;29;20294;-63
2023/05/24 10:37:19;;;;;;;10.87;4.40;;;;;;;14.91;56.76;99106.63;4928557;29;20252;-64
2023/05/24 10:39:47;;;;;;;17.27;4.63;;;;;;;15.39;56.97;99107.66;4931356;29;20220;-64
2023/05/24 10:42:16;;;;;;;11.40;4.47;;;;;;;15.82;54.75;99102.06;4929523;29;20283;-64
2023/05/24 10:44:43;;;;;;;18.10;6.70;;;;;;;15.38;51.91;99113.91;4935732;29;20363;-64
2023/05/24 10:47:11;;;;;;;10.73;4.17;;;;;;;15.62;51.14;99090.13;4928593;29;20232;-64
2023/05/24 10:49:39;;;;;;;9.20;4.00;;;;;;;15.12;53.33;99089.50;4908241;29;20226;-64
2023/05/24 10:52:10;;;;;;;15.33;4.40;;;;;;;15.45;52.72;99083.31;4927242;28;20238;-64
2023/05/24 10:54:37;;;;;;;17.83;4.23;;;;;;;15.40;54.19;99083.00;4922049;29;20287;-64
2023/05/24 10:57:07;;;;;;;13.73;4.07;;;;;;;15.49;53.80;99088.06;4929265;29;20312;-64
2023/05/24 10:59:39;;;;;;;9.67;4.03;;;;;;;15.53;51.17;99079.84;4930362;29;20241;-64
2023/05/24 11:02:12;;;;;;;12.03;3.40;;;;;;;15.57;50.00;99073.22;4927806;29;20217;-64
2023/05/24 11:04:42;;;;;;;10.67;3.40;;;;;;;15.73;48.91;99080.22;4912083;29;20238;-64
2023/05/24 11:07:09;;;;;;;9.73;3.63;;;;;;;15.83;50.12;99069.47;4929110;29;20220;-64
2023/05/24 11:09:44;;;;;;;12.00;3.40;;;;;;;15.92;49.81;99066.63;4931736;29;20237;-64
2023/05/24 11:12:16;;;;;;;9.43;3.67;;;;;;;16.13;49.05;99067.81;4927376;29;20232;-64
2023/05/24 11:14:47;;;;;;;10.37;3.90;;;;;;;16.53;50.59;99055.28;4931767;29;20237;-64
2023/05/24 11:17:14;;;;;;;7.37;3.50;;;;;;;16.17;44.98;99057.75;4928503;29;20264;-64
2023/05/24 11:19:46;;;;;;;5.93;2.80;;;;;;;16.43;47.77;99051.28;4929981;29;20251;-64
2023/05/24 11:22:14;;;;;;;11.20;4.20;;;;;;;16.70;47.72;99046.41;4928598;29;20244;-64
2023/05/24 11:24:42;;;;;;;10.43;3.57;;;;;;;16.76;46.17;99045.69;4930549;29;20221;-64
2023/05/24 11:27:12;;;;;;;15.90;3.57;;;;;;;16.94;50.64;99035.63;4927798;29;20229;-64
2023/05/24 11:29:41;;;;;;;9.37;3.33;;;;;;;16.72;46.41;99042.59;4932020;29;20222;-64
2023/05/24 11:32:08;;;;;;;9.60;3.60;;;;;;;16.72;47.13;99039.94;4926921;29;20239;-64
2023/05/24 11:34:38;;;;;;;11.40;3.40;;;;;;;16.67;46.95;99037.88;4930654;29;20227;-64
2023/05/24 11:37:06;;;;;;;14.87;4.30;;;;;;;16.76;47.98;99037.78;4926062;29;20244;-64
2023/05/24 11:39:38;;;;;;;9.67;3.53;;;;;;;16.77;46.67;99037.59;4930207;29;20234;-64
2023/05/24 11:42:05;;;;;;;12.33;4.13;;;;;;;16.73;47.52;99036.31;4927139;29;20251;-64